Mild Tempo — VROE5 — position and weather

sailwx.info

Track history (hours):
 
Tides and Currents Weather Stations Pressure Air Temp Water Temp Dewpoint Dewpoint Depression Visibility Wind Speed Wind Dir Waves Ship Positions

Mild Tempo

Last reported at 2018-Jan-18 18:06 UTC. Time now 2018-Jan-20 13:10 UTC.
Position N 34°02' E 136°43'.

Length 148 m; draft 7.8 m.

Type: Ship (hazmat cat A). MMSI: 477006600.

Date/timePositionNaut miles runAvg speedWind from/ knotsBaromVisibWave heightAir tempDewpointWater temp
2018-Jan-18 18:06N 34°02' E 136°43'217.9
2018-Jan-18 17:58N 34°03' E 136°45'3417.6
2018-Jan-18 16:03N 34°26' E 137°16'116.3
2018-Jan-18 15:59N 34°26' E 137°17'1016.0
2018-Jan-18 15:22N 34°27' E 137°29'615.7
2018-Jan-18 14:59N 34°28' E 137°36'715.7
2018-Jan-18 14:30N 34°28' E 137°45'815.6
2018-Jan-18 13:59N 34°28' E 137°55'815.6
2018-Jan-18 13:28N 34°29' E 138°05'715.1
2018-Jan-18 12:59N 34°29' E 138°14'915.6
2018-Jan-18 12:26N 34°30' E 138°24'715.7
2018-Jan-18 11:59N 34°31' E 138°33'715.5
2018-Jan-18 11:30N 34°31' E 138°42'815.5
2018-Jan-18 11:00N 34°31' E 138°51'714.6
2018-Jan-18 10:30N 34°33' E 138°60'816.1
2018-Jan-18 10:00N 34°39' E 139°06'816.6
2018-Jan-18 09:30N 34°46' E 139°12'816.9
2018-Jan-18 09:00N 34°52' E 139°19'916.7
2018-Jan-18 08:30N 34°57' E 139°27'816.6
2018-Jan-18 08:00N 35°02' E 139°35'917.0
2018-Jan-18 07:30N 35°06' E 139°44'612.7
2018-Jan-18 07:01N 35°12' E 139°46'611.0
2018-Jan-18 06:30N 35°18' E 139°44'611.9
2018-Jan-18 06:01N 35°23' E 139°42'3 6.7
2018-Jan-18 05:31N 35°27' E 139°41'0 0.8
2018-Jan-18 04:59N 35°26' E 139°41'0 0.0
2018-Jan-18 04:29N 35°26' E 139°41'0 0.0
2018-Jan-18 03:59N 35°26' E 139°41'0 0.0
2018-Jan-18 03:29N 35°26' E 139°41'0 0.0
2018-Jan-18 02:59N 35°26' E 139°41'0 0.0
2018-Jan-18 02:29N 35°26' E 139°41'0 0.0
2018-Jan-18 01:59N 35°26' E 139°41'0 0.0
2018-Jan-18 01:29N 35°26' E 139°41'0 0.0
2018-Jan-18 00:59N 35°26' E 139°41'0 0.0
2018-Jan-17 23:59N 35°26' E 139°41'0 0.0
2018-Jan-17 23:56N 35°26' E 139°41'  
2018-Jan-11 22:12N 34°07' E 129°54'316.4
2018-Jan-11 21:59N 34°07' E 129°58'816.5
2018-Jan-11 21:30N 34°06' E 130°07'815.4
2018-Jan-11 21:01N 34°05' E 130°16'815.8
2018-Jan-11 20:31N 34°05' E 130°26'816.3
2018-Jan-11 20:00N 34°04' E 130°36'815.8
2018-Jan-11 19:30N 34°03' E 130°45'713.1
2018-Jan-11 19:00N 33°60' E 130°52'510.8
2018-Jan-11 18:30N 33°55' E 130°54'4 8.2
2018-Jan-11 18:00N 33°58' E 130°57'4 8.5
2018-Jan-11 17:30N 33°58' E 131°03'713.4
2018-Jan-11 17:00N 33°54' E 131°09'612.4
2018-Jan-11 16:30N 33°51' E 131°16'612.7
2018-Jan-11 16:00N 33°50' E 131°23'612.8
2018-Jan-11 15:30N 33°49' E 131°31'612.8
2018-Jan-11 15:00N 33°47' E 131°38'611.6
2018-Jan-11 14:30N 33°44' E 131°44'612.7
2018-Jan-11 14:00N 33°38' E 131°48'612.7
2018-Jan-11 13:30N 33°33' E 131°52'612.5
2018-Jan-11 13:00N 33°27' E 131°55'612.7
2018-Jan-11 12:30N 33°21' E 131°58'612.1
2018-Jan-11 12:00N 33°16' E 132°02'613.0
2018-Jan-11 11:30N 33°11' E 132°06'23613.5
2018-Jan-10 18:02N 34°02' E 136°43'013.7
2018-Jan-10 18:00N 34°03' E 136°43'3514.2
2018-Jan-10 15:33N 34°26' E 137°14'114.3
2018-Jan-10 15:30N 34°27' E 137°15'1114.1
2018-Jan-10 14:43N 34°28' E 137°28'314.3
2018-Jan-10 14:29N 34°28' E 137°32'815.1
2018-Jan-10 13:59N 34°29' E 137°42'816.9
2018-Jan-10 13:30N 34°29' E 137°51'816.0
2018-Jan-10 13:00N 34°30' E 138°01'815.1
2018-Jan-10 12:30N 34°30' E 138°10'714.3
2018-Jan-10 11:59N 34°29' E 138°19'815.3
2018-Jan-10 11:29N 34°30' E 138°28'714.9
2018-Jan-10 11:00N 34°30' E 138°37'714.2
2018-Jan-10 10:30N 34°31' E 138°45'714.5
2018-Jan-10 10:00N 34°32' E 138°54'714.1
2018-Jan-10 09:30N 34°35' E 139°01'715.0
2018-Jan-10 09:00N 34°42' E 139°05'917.0
2018-Jan-10 08:28N 34°49' E 139°13'716.4
2018-Jan-10 08:01N 34°54' E 139°20'815.9
2018-Jan-10 07:31N 34°59' E 139°27'815.6
2018-Jan-10 07:01N 35°03' E 139°36'815.2
2018-Jan-10 06:30N 35°07' E 139°43'713.8
2018-Jan-10 06:00N 35°13' E 139°46'510.1
2018-Jan-10 05:30N 35°18' E 139°44'5 9.8
2018-Jan-10 05:01N 35°22' E 139°42'612.6
2018-Jan-10 04:31N 35°27' E 139°47'611.0
2018-Jan-10 04:00N 35°32' E 139°51'611.3
2018-Jan-10 03:30N 35°36' E 139°47'0 0.4
2018-Jan-10 02:58N 35°36' E 139°47'0 0.0
2018-Jan-10 02:22N 35°36' E 139°47'0 0.0
2018-Jan-10 01:58N 35°36' E 139°47'0 0.0
2018-Jan-10 01:28N 35°36' E 139°47'0 0.0
2018-Jan-10 00:58N 35°36' E 139°47'0 0.0
2018-Jan-10 00:28N 35°36' E 139°47'0 0.0
2018-Jan-09 23:40N 35°36' E 139°47'0 0.0
2018-Jan-09 23:28N 35°36' E 139°47'0 0.0
2018-Jan-09 22:52N 35°36' E 139°47'0 1.2
2018-Jan-09 22:29N 35°36' E 139°47'1 1.7
2018-Jan-09 21:59N 35°35' E 139°48'0 0.0
2018-Jan-09 21:29N 35°35' E 139°48'0 0.0
2018-Jan-09 20:59N 35°35' E 139°48'0 0.0
2018-Jan-09 20:29N 35°35' E 139°48'0 0.0
2018-Jan-09 19:59N 35°35' E 139°48'0 0.0
2018-Jan-09 19:20N 35°35' E 139°48'0 0.0
2018-Jan-09 18:59N 35°35' E 139°48'0 0.0
2018-Jan-09 18:29N 35°35' E 139°48'0 0.0
2018-Jan-09 17:59N 35°35' E 139°48'0 0.0
2018-Jan-09 17:17N 35°35' E 139°48'0 0.0
2018-Jan-09 16:59N 35°35' E 139°48'0 0.0
2018-Jan-09 16:29N 35°35' E 139°48'0 0.0
2018-Jan-09 15:56N 35°35' E 139°48'0 0.0
2018-Jan-09 15:26N 35°35' E 139°48'0 0.0
2018-Jan-09 14:47N 35°35' E 139°48'0 0.0
2018-Jan-09 14:29N 35°35' E 139°48'0 0.0
2018-Jan-09 13:59N 35°35' E 139°48'0 0.0
2018-Jan-09 13:29N 35°35' E 139°48'0 0.0
2018-Jan-09 12:59N 35°35' E 139°48'0 0.0
2018-Jan-09 12:29N 35°35' E 139°48'0 0.0
2018-Jan-09 11:59N 35°35' E 139°48'0 0.0
2018-Jan-09 11:20N 35°35' E 139°48'0 0.0
2018-Jan-09 10:59N 35°35' E 139°48'0 0.0
2018-Jan-09 10:26N 35°35' E 139°48'0 0.2
2018-Jan-09 10:01N 35°35' E 139°48'1 2.5
2018-Jan-09 09:31N 35°34' E 139°49'2 4.9
2018-Jan-09 09:01N 35°34' E 139°52'1 1.1
2018-Jan-09 08:30N 35°34' E 139°52'0 0.0
2018-Jan-09 08:00N 35°34' E 139°52'0 0.0
2018-Jan-09 07:27N 35°34' E 139°52'0 0.1
2018-Jan-09 06:54N 35°34' E 139°52'0 0.0
2018-Jan-09 06:27N 35°34' E 139°52'0 0.1
2018-Jan-09 05:59N 35°34' E 139°52'0 0.1
2018-Jan-09 05:30N 35°34' E 139°52'0 0.0
2018-Jan-09 04:51N 35°34' E 139°52'0 0.0
2018-Jan-09 04:27N 35°34' E 139°52'0 0.0
2018-Jan-09 03:54N 35°34' E 139°52'0 0.0
2018-Jan-09 03:29N 35°34' E 139°52'0 0.0
2018-Jan-09 02:56N 35°34' E 139°52'0 0.0
2018-Jan-09 02:30N 35°34' E 139°52'0 0.0
2018-Jan-09 02:00N 35°34' E 139°52'0 0.0
2018-Jan-09 01:27N 35°34' E 139°52'0 0.0
2018-Jan-09 00:57N 35°34' E 139°52'0 0.0
2018-Jan-09 00:30N 35°34' E 139°52'0 0.1
2018-Jan-08 23:57N 35°34' E 139°52'0 0.0
2018-Jan-08 23:27N 35°34' E 139°52'0 0.0
2018-Jan-08 22:56N 35°34' E 139°52'0 0.0
2018-Jan-08 22:29N 35°34' E 139°52'0 0.0
2018-Jan-08 21:59N 35°34' E 139°52'0 0.1
2018-Jan-08 21:29N 35°34' E 139°52'0 0.1
2018-Jan-08 20:56N 35°34' E 139°52'0 0.1
2018-Jan-08 20:26N 35°34' E 139°52'0 0.1
2018-Jan-08 19:57N 35°34' E 139°52'0 0.0
2018-Jan-08 19:27N 35°34' E 139°52'0 0.0
2018-Jan-08 18:57N 35°34' E 139°52'0 0.0
2018-Jan-08 18:26N 35°34' E 139°52'  
Track history (hours):
 
Tides and Currents Weather Stations Pressure Air Temp Water Temp Dewpoint Dewpoint Depression Visibility Wind Speed Wind Dir Waves Ship Positions

Mild Tempo

Last reported at 2018-Jan-18 18:06 UTC. Time now 2018-Jan-20 13:10 UTC.
Position N 34°02' E 136°43'.

Length 148 m; draft 7.8 m.

Type: Ship (hazmat cat A). MMSI: 477006600.

Date/timePositionNaut miles runAvg speedWind from/ knotsBaromVisibWave heightAir tempDewpointWater temp
2018-Jan-18 18:06N 34°02' E 136°43'217.9
2018-Jan-18 17:58N 34°03' E 136°45'3417.6
2018-Jan-18 16:03N 34°26' E 137°16'116.3
2018-Jan-18 15:59N 34°26' E 137°17'1016.0
2018-Jan-18 15:22N 34°27' E 137°29'615.7
2018-Jan-18 14:59N 34°28' E 137°36'715.7
2018-Jan-18 14:30N 34°28' E 137°45'815.6
2018-Jan-18 13:59N 34°28' E 137°55'815.6
2018-Jan-18 13:28N 34°29' E 138°05'715.1
2018-Jan-18 12:59N 34°29' E 138°14'915.6
2018-Jan-18 12:26N 34°30' E 138°24'715.7
2018-Jan-18 11:59N 34°31' E 138°33'715.5
2018-Jan-18 11:30N 34°31' E 138°42'815.5
2018-Jan-18 11:00N 34°31' E 138°51'714.6
2018-Jan-18 10:30N 34°33' E 138°60'816.1
2018-Jan-18 10:00N 34°39' E 139°06'816.6
2018-Jan-18 09:30N 34°46' E 139°12'816.9
2018-Jan-18 09:00N 34°52' E 139°19'916.7
2018-Jan-18 08:30N 34°57' E 139°27'816.6
2018-Jan-18 08:00N 35°02' E 139°35'917.0
2018-Jan-18 07:30N 35°06' E 139°44'612.7
2018-Jan-18 07:01N 35°12' E 139°46'611.0
2018-Jan-18 06:30N 35°18' E 139°44'611.9
2018-Jan-18 06:01N 35°23' E 139°42'3 6.7
2018-Jan-18 05:31N 35°27' E 139°41'0 0.8
2018-Jan-18 04:59N 35°26' E 139°41'0 0.0
2018-Jan-18 04:29N 35°26' E 139°41'0 0.0
2018-Jan-18 03:59N 35°26' E 139°41'0 0.0
2018-Jan-18 03:29N 35°26' E 139°41'0 0.0
2018-Jan-18 02:59N 35°26' E 139°41'0 0.0
2018-Jan-18 02:29N 35°26' E 139°41'0 0.0
2018-Jan-18 01:59N 35°26' E 139°41'0 0.0
2018-Jan-18 01:29N 35°26' E 139°41'0 0.0
2018-Jan-18 00:59N 35°26' E 139°41'0 0.0
2018-Jan-17 23:59N 35°26' E 139°41'0 0.0
2018-Jan-17 23:56N 35°26' E 139°41'  
2018-Jan-11 22:12N 34°07' E 129°54'316.4
2018-Jan-11 21:59N 34°07' E 129°58'816.5
2018-Jan-11 21:30N 34°06' E 130°07'815.4
2018-Jan-11 21:01N 34°05' E 130°16'815.8
2018-Jan-11 20:31N 34°05' E 130°26'816.3
2018-Jan-11 20:00N 34°04' E 130°36'815.8
2018-Jan-11 19:30N 34°03' E 130°45'713.1
2018-Jan-11 19:00N 33°60' E 130°52'510.8
2018-Jan-11 18:30N 33°55' E 130°54'4 8.2
2018-Jan-11 18:00N 33°58' E 130°57'4 8.5
2018-Jan-11 17:30N 33°58' E 131°03'713.4
2018-Jan-11 17:00N 33°54' E 131°09'612.4
2018-Jan-11 16:30N 33°51' E 131°16'612.7
2018-Jan-11 16:00N 33°50' E 131°23'612.8
2018-Jan-11 15:30N 33°49' E 131°31'612.8
2018-Jan-11 15:00N 33°47' E 131°38'611.6
2018-Jan-11 14:30N 33°44' E 131°44'612.7
2018-Jan-11 14:00N 33°38' E 131°48'612.7
2018-Jan-11 13:30N 33°33' E 131°52'612.5
2018-Jan-11 13:00N 33°27' E 131°55'612.7
2018-Jan-11 12:30N 33°21' E 131°58'612.1
2018-Jan-11 12:00N 33°16' E 132°02'613.0
2018-Jan-11 11:30N 33°11' E 132°06'23613.5
2018-Jan-10 18:02N 34°02' E 136°43'013.7
2018-Jan-10 18:00N 34°03' E 136°43'3514.2
2018-Jan-10 15:33N 34°26' E 137°14'114.3
2018-Jan-10 15:30N 34°27' E 137°15'1114.1
2018-Jan-10 14:43N 34°28' E 137°28'314.3
2018-Jan-10 14:29N 34°28' E 137°32'815.1
2018-Jan-10 13:59N 34°29' E 137°42'816.9
2018-Jan-10 13:30N 34°29' E 137°51'816.0
2018-Jan-10 13:00N 34°30' E 138°01'815.1
2018-Jan-10 12:30N 34°30' E 138°10'714.3
2018-Jan-10 11:59N 34°29' E 138°19'815.3
2018-Jan-10 11:29N 34°30' E 138°28'714.9
2018-Jan-10 11:00N 34°30' E 138°37'714.2
2018-Jan-10 10:30N 34°31' E 138°45'714.5
2018-Jan-10 10:00N 34°32' E 138°54'714.1
2018-Jan-10 09:30N 34°35' E 139°01'715.0
2018-Jan-10 09:00N 34°42' E 139°05'917.0
2018-Jan-10 08:28N 34°49' E 139°13'716.4
2018-Jan-10 08:01N 34°54' E 139°20'815.9
2018-Jan-10 07:31N 34°59' E 139°27'815.6
2018-Jan-10 07:01N 35°03' E 139°36'815.2
2018-Jan-10 06:30N 35°07' E 139°43'713.8
2018-Jan-10 06:00N 35°13' E 139°46'510.1
2018-Jan-10 05:30N 35°18' E 139°44'5 9.8
2018-Jan-10 05:01N 35°22' E 139°42'612.6
2018-Jan-10 04:31N 35°27' E 139°47'611.0
2018-Jan-10 04:00N 35°32' E 139°51'611.3
2018-Jan-10 03:30N 35°36' E 139°47'0 0.4
2018-Jan-10 02:58N 35°36' E 139°47'0 0.0
2018-Jan-10 02:22N 35°36' E 139°47'0 0.0
2018-Jan-10 01:58N 35°36' E 139°47'0 0.0
2018-Jan-10 01:28N 35°36' E 139°47'0 0.0
2018-Jan-10 00:58N 35°36' E 139°47'0 0.0
2018-Jan-10 00:28N 35°36' E 139°47'0 0.0
2018-Jan-09 23:40N 35°36' E 139°47'0 0.0
2018-Jan-09 23:28N 35°36' E 139°47'0 0.0
2018-Jan-09 22:52N 35°36' E 139°47'0 1.2
2018-Jan-09 22:29N 35°36' E 139°47'1 1.7
2018-Jan-09 21:59N 35°35' E 139°48'0 0.0
2018-Jan-09 21:29N 35°35' E 139°48'0 0.0
2018-Jan-09 20:59N 35°35' E 139°48'0 0.0
2018-Jan-09 20:29N 35°35' E 139°48'0 0.0
2018-Jan-09 19:59N 35°35' E 139°48'0 0.0
2018-Jan-09 19:20N 35°35' E 139°48'0 0.0
2018-Jan-09 18:59N 35°35' E 139°48'0 0.0
2018-Jan-09 18:29N 35°35' E 139°48'0 0.0
2018-Jan-09 17:59N 35°35' E 139°48'0 0.0
2018-Jan-09 17:17N 35°35' E 139°48'0 0.0
2018-Jan-09 16:59N 35°35' E 139°48'0 0.0
2018-Jan-09 16:29N 35°35' E 139°48'0 0.0
2018-Jan-09 15:56N 35°35' E 139°48'0 0.0
2018-Jan-09 15:26N 35°35' E 139°48'0 0.0
2018-Jan-09 14:47N 35°35' E 139°48'0 0.0
2018-Jan-09 14:29N 35°35' E 139°48'0 0.0
2018-Jan-09 13:59N 35°35' E 139°48'0 0.0
2018-Jan-09 13:29N 35°35' E 139°48'0 0.0
2018-Jan-09 12:59N 35°35' E 139°48'0 0.0
2018-Jan-09 12:29N 35°35' E 139°48'0 0.0
2018-Jan-09 11:59N 35°35' E 139°48'0 0.0
2018-Jan-09 11:20N 35°35' E 139°48'0 0.0
2018-Jan-09 10:59N 35°35' E 139°48'0 0.0
2018-Jan-09 10:26N 35°35' E 139°48'0 0.2
2018-Jan-09 10:01N 35°35' E 139°48'1 2.5
2018-Jan-09 09:31N 35°34' E 139°49'2 4.9
2018-Jan-09 09:01N 35°34' E 139°52'1 1.1
2018-Jan-09 08:30N 35°34' E 139°52'0 0.0
2018-Jan-09 08:00N 35°34' E 139°52'0 0.0
2018-Jan-09 07:27N 35°34' E 139°52'0 0.1
2018-Jan-09 06:54N 35°34' E 139°52'0 0.0
2018-Jan-09 06:27N 35°34' E 139°52'0 0.1
2018-Jan-09 05:59N 35°34' E 139°52'0 0.1
2018-Jan-09 05:30N 35°34' E 139°52'0 0.0
2018-Jan-09 04:51N 35°34' E 139°52'0 0.0
2018-Jan-09 04:27N 35°34' E 139°52'0 0.0
2018-Jan-09 03:54N 35°34' E 139°52'0 0.0
2018-Jan-09 03:29N 35°34' E 139°52'0 0.0
2018-Jan-09 02:56N 35°34' E 139°52'0 0.0
2018-Jan-09 02:30N 35°34' E 139°52'0 0.0
2018-Jan-09 02:00N 35°34' E 139°52'0 0.0
2018-Jan-09 01:27N 35°34' E 139°52'0 0.0
2018-Jan-09 00:57N 35°34' E 139°52'0 0.0
2018-Jan-09 00:30N 35°34' E 139°52'0 0.1
2018-Jan-08 23:57N 35°34' E 139°52'0 0.0
2018-Jan-08 23:27N 35°34' E 139°52'0 0.0
2018-Jan-08 22:56N 35°34' E 139°52'0 0.0
2018-Jan-08 22:29N 35°34' E 139°52'0 0.0
2018-Jan-08 21:59N 35°34' E 139°52'0 0.1
2018-Jan-08 21:29N 35°34' E 139°52'0 0.1
2018-Jan-08 20:56N 35°34' E 139°52'0 0.1
2018-Jan-08 20:26N 35°34' E 139°52'0 0.1
2018-Jan-08 19:57N 35°34' E 139°52'0 0.0
2018-Jan-08 19:27N 35°34' E 139°52'0 0.0
2018-Jan-08 18:57N 35°34' E 139°52'0 0.0
2018-Jan-08 18:26N 35°34' E 139°52'  

Dump ship's entire track history